Time;durP1;ratioP1;P1;durP2;ratioP2;P2;SDS_P1;SDS_P2;PMS_P1;PMS_P2;Temp;Humidity;BMP_temperature;BMP_pressure;BME280_temperature;BME280_humidity;BME280_pressure;Samples;Min_cycle;Max_cycle;Signal;HPM_P1;HPM_P2
2023/07/22 00:00:53;;;;;;;3.53;1.70;;;;;;;14.84;74.83;98774.72;5068909;28;20060;-40
2023/07/22 00:03:19;;;;;;;4.88;1.63;;;;;;;14.84;74.93;98771.25;5063502;28;20544;-39
2023/07/22 00:05:45;;;;;;;2.30;1.30;;;;;;;14.81;74.75;98772.28;5067720;28;20040;-39
2023/07/22 00:08:11;;;;;;;3.95;1.75;;;;;;;14.79;74.75;98768.94;5068104;28;20056;-40
2023/07/22 00:10:43;;;;;;;6.47;1.70;;;;;;;14.58;74.63;98738.97;5068255;28;20449;-40
2023/07/22 00:13:09;;;;;;;2.38;1.45;;;;;;;14.77;74.36;98778.66;5069451;28;20595;-41
2023/07/22 00:15:35;;;;;;;2.60;1.60;;;;;;;14.72;74.32;98770.28;5069099;28;20044;-40
2023/07/22 00:18:01;;;;;;;3.75;1.58;;;;;;;14.72;74.51;98778.13;5052537;28;20109;-40
2023/07/22 00:20:27;;;;;;;5.20;1.42;;;;;;;14.56;74.80;98748.66;5069154;28;20492;-39
2023/07/22 00:22:52;;;;;;;3.17;1.63;;;;;;;14.69;74.98;98782.72;5068568;28;20055;-40
2023/07/22 00:25:18;;;;;;;3.83;1.77;;;;;;;14.69;74.93;98775.72;5047903;28;20044;-40
2023/07/22 00:27:45;;;;;;;2.47;1.50;;;;;;;14.58;74.77;98762.50;5049056;28;20123;-40
2023/07/22 00:30:11;;;;;;;4.18;1.90;;;;;;;14.67;74.97;98781.97;5049041;28;20148;-40
2023/07/22 00:32:37;;;;;;;3.47;1.77;;;;;;;14.65;75.12;98781.25;5056315;28;20450;-40
2023/07/22 00:35:06;;;;;;;1.92;1.30;;;;;;;14.62;75.25;98782.28;5050230;28;20071;-40
2023/07/22 00:37:33;;;;;;;2.20;1.40;;;;;;;14.60;75.37;98783.34;5053517;28;20033;-40
2023/07/22 00:39:59;;;;;;;2.75;1.27;;;;;;;14.60;75.49;98784.16;5070135;28;20563;-39
2023/07/22 00:42:25;;;;;;;3.75;1.52;;;;;;;14.59;75.86;98779.03;5057761;28;20080;-40
2023/07/22 00:44:51;;;;;;;5.53;1.60;;;;;;;14.56;76.03;98789.69;5067283;28;20036;-39
2023/07/22 00:47:17;;;;;;;3.25;1.70;;;;;;;14.27;76.26;98747.09;5068344;28;20047;-38
2023/07/22 00:49:47;;;;;;;6.47;2.20;;;;;;;14.49;76.46;98786.66;5068618;28;20092;-39
2023/07/22 00:52:12;;;;;;;;;;;;;;;14.49;76.76;98797.09;5069283;28;20094;-41
2023/07/22 00:54:38;;;;;;;4.30;1.52;;;;;;;14.25;76.92;98762.88;5083704;28;19924;-40
2023/07/22 00:57:04;;;;;;;3.15;1.80;;;;;;;14.41;76.92;98788.91;5068508;28;20658;-40
2023/07/22 00:59:30;;;;;;;2.50;1.40;;;;;;;14.41;77.15;98791.50;5069676;28;20113;-40
2023/07/22 01:01:56;;;;;;;4.03;1.48;;;;;;;14.41;77.22;98787.13;5054983;28;20516;-40
2023/07/22 01:04:23;;;;;;;5.75;1.70;;;;;;;14.42;77.61;98782.75;5056452;28;20427;-39
2023/07/22 01:06:49;;;;;;;2.35;1.42;;;;;;;14.41;77.89;98794.13;5069123;28;20440;-39
2023/07/22 01:09:15;;;;;;;4.25;1.40;;;;;;;14.37;77.83;98790.88;5067834;28;20584;-39
2023/07/22 01:11:41;;;;;;;3.38;1.67;;;;;;;14.38;78.28;98786.50;5067057;28;20127;-38
2023/07/22 01:14:07;;;;;;;4.13;1.75;;;;;;;14.36;78.45;98789.19;5050732;28;20085;-39
2023/07/22 01:16:34;;;;;;;5.22;1.48;;;;;;;14.35;78.83;98791.88;5065715;28;20072;-40
2023/07/22 01:19:00;;;;;;;2.83;1.10;;;;;;;14.35;78.85;98799.72;5067572;28;20055;-40
2023/07/22 01:21:27;;;;;;;4.85;1.50;;;;;;;14.11;79.21;98760.28;5043596;28;20048;-40
2023/07/22 01:23:52;;;;;;;3.67;1.40;;;;;;;14.30;79.26;98797.41;5061666;28;20043;-39
2023/07/22 01:26:19;;;;;;;3.95;1.60;;;;;;;14.15;79.66;98769.63;5069776;28;20040;-40
2023/07/22 01:28:45;;;;;;;2.65;1.42;;;;;;;14.29;79.75;98802.72;5081182;28;20495;-40
2023/07/22 01:31:11;;;;;;;8.55;1.70;;;;;;;14.25;79.75;98812.53;5050538;28;20131;-39
2023/07/22 01:33:37;;;;;;;3.80;1.58;;;;;;;14.25;80.25;98809.91;5050029;28;20389;-40
2023/07/22 01:36:03;;;;;;;3.28;1.60;;;;;;;14.23;80.05;98814.44;5059650;28;20098;-49
2023/07/22 01:38:31;;;;;;;2.67;1.40;;;;;;;14.19;80.27;98812.91;5066067;28;20059;-39
2023/07/22 01:40:57;;;;;;;1.73;1.30;;;;;;;14.17;80.51;98821.81;5049132;28;20431;-38
2023/07/22 01:43:23;;;;;;;3.47;1.50;;;;;;;14.11;80.56;98820.41;5067513;28;20036;-38
2023/07/22 01:45:49;;;;;;;3.15;1.48;;;;;;;14.10;81.15;98823.13;5068997;28;20700;-39
2023/07/22 01:48:14;;;;;;;5.13;1.38;;;;;;;14.11;81.32;98828.25;5066766;28;20040;-39
2023/07/22 01:50:40;;;;;;;4.28;1.90;;;;;;;14.09;81.26;98824.88;5068247;28;20423;-39
2023/07/22 01:53:06;;;;;;;3.65;1.30;;;;;;;14.07;81.60;98826.78;5046437;28;20044;-39
2023/07/22 01:55:32;;;;;;;4.18;1.38;;;;;;;14.06;81.56;98825.09;5047095;28;20067;-38
2023/07/22 01:57:58;;;;;;;3.72;1.60;;;;;;;14.06;81.55;98827.69;5060273;28;20508;-39
2023/07/22 02:00:24;;;;;;;4.22;1.67;;;;;;;13.81;81.60;98794.41;5048366;28;20099;-38
2023/07/22 02:02:50;;;;;;;2.95;1.33;;;;;;;13.86;82.11;98805.41;5073369;28;20121;-39
2023/07/22 02:05:16;;;;;;;7.63;1.80;;;;;;;14.00;82.38;98828.06;5034298;28;20562;-38
2023/07/22 02:07:42;;;;;;;4.55;1.73;;;;;;;14.04;82.26;98831.31;5045279;28;20128;-39
2023/07/22 02:10:09;;;;;;;2.78;1.55;;;;;;;14.03;82.37;98829.69;5056841;28;20508;-38
2023/07/22 02:12:35;;;;;;;3.83;1.70;;;;;;;14.03;82.39;98827.88;5065844;28;20067;-39
2023/07/22 02:15:02;;;;;;;3.55;1.40;;;;;;;14.03;82.61;98835.72;5064380;28;20079;-39
2023/07/22 02:17:30;;;;;;;2.20;1.30;;;;;;;14.04;82.65;98833.94;5081319;28;20040;-40
2023/07/22 02:20:17;;;;;;;1.73;1.27;;;;;;;14.03;82.79;98842.75;5053341;28;20516;-39
2023/07/22 02:22:43;;;;;;;3.63;1.30;;;;;;;13.90;82.66;98814.75;5050491;28;20052;-39
2023/07/22 02:25:10;;;;;;;3.50;1.65;;;;;;;14.06;82.64;98839.94;5051617;28;20075;-39
2023/07/22 02:27:36;;;;;;;3.50;1.60;;;;;;;14.08;82.63;98833.66;5059771;28;20518;-39
2023/07/22 02:30:04;;;;;;;6.68;2.10;;;;;;;14.08;82.67;98823.19;5066490;28;20047;-39
2023/07/22 02:32:30;;;;;;;4.30;1.50;;;;;;;14.11;82.60;98833.47;5067027;28;20469;-38
2023/07/22 02:34:56;;;;;;;3.47;1.60;;;;;;;14.18;82.30;98840.03;5032729;28;20041;-38
2023/07/22 02:37:22;;;;;;;1.85;1.30;;;;;;;14.21;82.18;98838.97;5035056;28;20533;-38
2023/07/22 02:39:48;;;;;;;4.97;1.48;;;;;;;14.05;82.03;98818.19;5071168;28;20401;-38
2023/07/22 02:42:13;;;;;;;3.60;1.42;;;;;;;14.22;82.28;98845.88;5072400;28;20048;-39
2023/07/22 02:44:39;;;;;;;5.43;1.40;;;;;;;14.24;82.07;98841.38;5071376;28;20519;-38
2023/07/22 02:47:05;;;;;;;3.47;1.60;;;;;;;14.25;81.80;98846.53;5070903;28;20523;-39
2023/07/22 02:49:31;;;;;;;5.10;1.40;;;;;;;14.27;81.64;98849.06;5069790;28;20036;-39
2023/07/22 02:51:57;;;;;;;2.88;1.52;;;;;;;14.29;81.70;98850.63;5069874;28;20625;-39
2023/07/22 02:54:23;;;;;;;2.20;1.17;;;;;;;14.15;81.48;98824.50;5071347;28;20047;-39
2023/07/22 02:56:49;;;;;;;3.17;1.30;;;;;;;14.31;81.63;98850.53;5070102;28;20057;-39
2023/07/22 02:59:14;;;;;;;6.13;1.40;;;;;;;14.35;81.43;98846.78;5068405;28;20044;-40
2023/07/22 03:01:40;;;;;;;3.33;1.42;;;;;;;14.39;81.33;98858.78;5050613;28;20045;-39
2023/07/22 03:04:06;;;;;;;4.93;1.67;;;;;;;14.42;80.93;98858.56;5054829;28;20044;-39
2023/07/22 03:06:32;;;;;;;1.83;1.13;;;;;;;14.44;81.01;98859.34;5051838;28;20036;-39
2023/07/22 03:08:58;;;;;;;6.75;1.40;;;;;;;14.50;81.08;98866.75;5065763;28;20401;-38
2023/07/22 03:11:25;;;;;;;3.60;1.40;;;;;;;14.53;80.86;98863.13;5071906;28;20815;-38
2023/07/22 03:13:51;;;;;;;3.80;1.23;;;;;;;14.55;80.84;98858.66;5060234;28;20037;-39
2023/07/22 03:16:17;;;;;;;3.85;1.50;;;;;;;14.60;80.75;98867.03;5050043;28;20095;-39
2023/07/22 03:18:44;;;;;;;3.70;1.33;;;;;;;14.45;80.33;98834.00;5044546;28;20573;-39
2023/07/22 03:21:10;;;;;;;3.25;1.60;;;;;;;14.65;80.51;98863.19;5071642;28;20040;-39
2023/07/22 03:23:36;;;;;;;4.55;1.55;;;;;;;14.56;79.91;98831.53;5067583;28;20047;-39
2023/07/22 03:26:01;;;;;;;5.32;1.40;;;;;;;14.59;79.89;98842.66;5050814;28;20052;-39
2023/07/22 03:28:27;;;;;;;2.28;1.35;;;;;;;14.80;79.78;98861.38;5069193;28;20028;-40
2023/07/22 03:30:53;;;;;;;3.10;1.17;;;;;;;14.80;79.63;98862.22;5070154;28;20041;-39
2023/07/22 03:33:19;;;;;;;5.78;1.42;;;;;;;14.86;79.44;98858.34;5069091;28;20422;-39
2023/07/22 03:35:45;;;;;;;4.00;1.25;;;;;;;14.71;78.82;98841.84;5068836;28;20048;-39
2023/07/22 03:38:11;;;;;;;2.45;1.23;;;;;;;14.89;78.73;98860.78;5060274;28;20115;-39
2023/07/22 03:40:38;;;;;;;4.00;1.33;;;;;;;14.94;78.49;98870.94;5051086;28;20102;-40
2023/07/22 03:43:04;;;;;;;4.53;1.30;;;;;;;14.99;78.27;98868.84;5056072;28;20044;-38
2023/07/22 03:45:29;;;;;;;6.07;1.20;;;;;;;15.03;78.16;98863.31;5069177;28;20048;-39
2023/07/22 03:48:00;;;;;;;5.10;1.33;;;;;;;15.09;77.79;98867.31;5070687;28;20044;-40
2023/07/22 03:50:26;;;;;;;2.40;1.17;;;;;;;15.08;77.25;98871.72;5069011;28;20466;-39
2023/07/22 03:52:53;;;;;;;3.10;1.25;;;;;;;15.13;77.20;98874.00;5069676;28;20080;-40
2023/07/22 03:55:21;;;;;;;4.30;1.20;;;;;;;15.17;77.05;98880.75;5039209;28;20539;-39
2023/07/22 03:57:47;;;;;;;2.33;1.48;;;;;;;15.20;76.90;98886.63;5049392;28;20037;-39
2023/07/22 04:00:13;;;;;;;3.42;1.20;;;;;;;15.24;76.88;98888.09;5049649;28;20049;-38
2023/07/22 04:02:40;;;;;;;3.67;1.55;;;;;;;15.23;76.71;98877.69;5066031;28;20120;-39
2023/07/22 04:05:06;;;;;;;2.80;1.05;;;;;;;15.25;76.53;98881.06;5069102;28;20075;-39
2023/07/22 04:07:32;;;;;;;4.43;1.60;;;;;;;15.33;76.18;98880.56;5084866;28;20040;-39
2023/07/22 04:09:58;;;;;;;2.35;1.20;;;;;;;15.39;76.02;98878.38;5035661;28;20054;-40
2023/07/22 04:12:24;;;;;;;7.25;1.77;;;;;;;15.42;75.91;98882.56;5050739;28;20040;-40
2023/07/22 04:14:49;;;;;;;3.70;1.40;;;;;;;15.34;75.72;98866.50;5053329;28;20520;-39
2023/07/22 04:17:15;;;;;;;3.33;1.30;;;;;;;15.34;75.48;98850.81;5069715;28;20123;-39
2023/07/22 04:19:44;;;;;;;1.92;1.17;;;;;;;15.57;75.28;98882.41;5068694;28;20105;-39
2023/07/22 04:22:13;;;;;;;3.30;1.20;;;;;;;15.64;75.28;98882.84;5053144;28;20048;-39
2023/07/22 04:24:39;;;;;;;5.03;1.15;;;;;;;15.70;74.88;98882.44;5063906;28;20116;-41
2023/07/22 04:27:05;;;;;;;2.45;1.20;;;;;;;15.75;74.75;98882.97;5035253;28;20040;-40
2023/07/22 04:29:31;;;;;;;1.52;1.13;;;;;;;15.83;74.60;98885.88;5069699;28;20151;-40
2023/07/22 04:32:01;;;;;;;4.38;1.25;;;;;;;15.85;74.38;98884.00;5051876;28;20044;-39
2023/07/22 04:34:31;;;;;;;2.40;1.45;;;;;;;15.86;73.95;98874.38;5068708;28;20044;-39
2023/07/22 04:36:57;;;;;;;3.10;1.08;;;;;;;15.78;73.58;98853.06;5069452;28;20096;-39
2023/07/22 04:39:24;;;;;;;2.00;1.05;;;;;;;16.05;73.16;98885.25;5053829;28;20048;-38
2023/07/22 04:41:50;;;;;;;3.95;1.10;;;;;;;16.10;72.57;98891.84;5068581;28;20102;-38
2023/07/22 04:44:17;;;;;;;3.83;1.20;;;;;;;16.20;72.65;98897.28;5069428;28;20131;-39
2023/07/22 04:46:43;;;;;;;3.80;1.20;;;;;;;16.28;72.36;98892.34;5069829;28;20032;-39
2023/07/22 04:49:08;;;;;;;5.85;1.50;;;;;;;16.29;71.85;98880.06;5068574;28;20751;-39
2023/07/22 04:51:34;;;;;;;1.67;1.10;;;;;;;16.62;71.74;98903.97;5067883;28;20435;-39
2023/07/22 04:54:00;;;;;;;2.58;1.23;;;;;;;16.71;70.33;98905.91;5069295;28;20052;-40
2023/07/22 04:56:26;;;;;;;4.80;1.50;;;;;;;16.75;70.33;98906.53;5069647;28;20052;-39
2023/07/22 04:58:52;;;;;;;3.15;1.20;;;;;;;16.76;70.35;98916.91;5069490;28;20047;-39
2023/07/22 05:01:18;;;;;;;7.88;1.30;;;;;;;16.78;70.34;98919.44;5069039;28;20508;-38
2023/07/22 05:03:44;;;;;;;2.20;1.38;;;;;;;16.84;70.52;98911.13;5069091;28;20492;-39
2023/07/22 05:06:09;;;;;;;2.05;1.25;;;;;;;16.79;70.14;98890.47;5050561;28;20049;-38
2023/07/22 05:08:37;;;;;;;2.20;1.02;;;;;;;16.99;69.55;98911.81;5048108;28;20098;-40
2023/07/22 05:11:04;;;;;;;1.40;1.00;;;;;;;17.00;69.21;98881.97;5054446;28;20131;-38
2023/07/22 05:13:29;;;;;;;1.90;1.20;;;;;;;17.20;68.17;98889.22;5047621;28;20048;-39
2023/07/22 05:15:55;;;;;;;2.67;1.20;;;;;;;17.52;67.43;98908.69;5048067;28;20043;-39
2023/07/22 05:18:21;;;;;;;5.88;1.30;;;;;;;17.81;66.33;98898.63;5064501;28;20037;-38
2023/07/22 05:20:47;;;;;;;4.25;1.05;;;;;;;17.96;65.54;98878.19;5063960;28;20048;-39
2023/07/22 05:23:13;;;;;;;2.38;0.90;;;;;;;18.24;64.67;98896.13;5065375;28;20420;-39
2023/07/22 05:25:38;;;;;;;2.47;1.15;;;;;;;18.29;64.24;98911.56;5069149;28;20056;-39
2023/07/22 05:28:04;;;;;;;1.38;0.88;;;;;;;18.27;63.90;98897.69;5068087;28;20634;-39
2023/07/22 05:30:30;;;;;;;2.53;1.50;;;;;;;18.34;63.77;98909.41;5065919;28;20048;-39
2023/07/22 05:32:56;;;;;;;4.38;1.17;;;;;;;18.14;63.86;98871.50;5068026;28;20044;-39
2023/07/22 05:35:22;;;;;;;1.90;1.00;;;;;;;18.38;63.78;98895.03;5067173;28;20040;-39
2023/07/22 05:37:48;;;;;;;2.28;1.27;;;;;;;18.23;63.79;98869.94;5068611;28;20078;-39
2023/07/22 05:40:14;;;;;;;6.72;1.55;;;;;;;18.32;63.48;98893.72;5066117;28;20032;-39
2023/07/22 05:42:41;;;;;;;2.28;1.50;;;;;;;18.33;63.78;98887.50;5055908;28;20562;-41
2023/07/22 05:45:07;;;;;;;3.15;1.15;;;;;;;18.48;63.81;98888.94;5055660;28;20044;-39
2023/07/22 05:47:33;;;;;;;5.05;1.35;;;;;;;18.58;63.30;98886.44;5056236;28;20049;-40
2023/07/22 05:49:59;;;;;;;2.03;1.00;;;;;;;18.63;63.07;98896.63;5054307;28;20062;-39
2023/07/22 05:52:25;;;;;;;3.83;1.20;;;;;;;18.56;62.84;98901.53;5067329;28;20037;-39
2023/07/22 05:54:50;;;;;;;4.10;1.27;;;;;;;18.68;62.85;98900.56;5068854;28;20047;-39
2023/07/22 05:57:16;;;;;;;4.05;1.27;;;;;;;18.76;62.74;98895.50;5068982;28;20082;-39
2023/07/22 05:59:42;;;;;;;2.13;0.90;;;;;;;18.84;62.58;98885.19;5067358;28;20052;-40
2023/07/22 06:02:09;;;;;;;4.07;1.30;;;;;;;18.79;61.90;98865.47;5068041;28;20046;-39
2023/07/22 06:04:34;;;;;;;3.05;1.30;;;;;;;19.01;61.73;98902.25;5067413;28;20036;-40
2023/07/22 06:07:01;;;;;;;2.63;1.10;;;;;;;19.04;61.10;98894.13;5066630;28;20047;-40
2023/07/22 06:09:27;;;;;;;5.40;1.30;;;;;;;19.14;60.92;98891.56;5068788;28;20060;-40
2023/07/22 06:11:53;;;;;;;2.13;1.00;;;;;;;19.20;60.53;98885.81;5056707;28;20540;-42
2023/07/22 06:14:19;;;;;;;5.78;1.45;;;;;;;19.18;60.22;98871.91;5049606;28;20037;-40
2023/07/22 06:16:44;;;;;;;1.73;1.02;;;;;;;19.33;59.95;98876.75;5043685;28;20068;-40
2023/07/22 06:19:10;;;;;;;5.30;1.13;;;;;;;19.64;59.67;98890.03;5068742;28;20036;-40
2023/07/22 06:21:36;;;;;;;7.70;1.20;;;;;;;19.74;59.22;98886.47;5065867;28;20048;-39
2023/07/22 06:24:02;;;;;;;3.55;1.30;;;;;;;19.85;58.69;98891.69;5056316;28;20060;-40
2023/07/22 06:26:28;;;;;;;3.08;1.40;;;;;;;20.00;58.47;98894.81;5047233;28;20527;-39
2023/07/22 06:28:54;;;;;;;4.35;1.30;;;;;;;20.30;57.97;98891.38;5061531;28;20130;-40
2023/07/22 06:31:19;;;;;;;4.38;1.10;;;;;;;20.54;57.09;98894.53;5066001;28;20470;-40
2023/07/22 06:33:45;;;;;;;3.92;1.13;;;;;;;20.67;56.15;98899.56;5067636;28;20083;-40
2023/07/22 06:36:11;;;;;;;2.22;1.10;;;;;;;20.77;54.09;98884.56;5064291;28;20076;-53
2023/07/22 06:38:37;;;;;;;1.25;0.80;;;;;;;21.33;53.39;98900.66;5054128;28;20041;-47
2023/07/22 06:41:03;;;;;;;3.60;0.90;;;;;;;21.97;52.24;98884.16;5061607;28;20040;-52
2023/07/22 06:43:29;;;;;;;3.85;1.00;;;;;;;22.55;50.29;98898.00;5066151;28;20154;-50
2023/07/22 06:45:55;;;;;;;2.63;1.20;;;;;;;23.22;48.64;98891.44;5066040;28;20068;-51
2023/07/22 06:48:21;;;;;;;2.40;1.08;;;;;;;24.07;47.70;98896.09;5066288;28;20744;-47
2023/07/22 06:50:48;;;;;;;2.05;0.90;;;;;;;25.15;45.64;98906.00;5066023;28;20044;-50
2023/07/22 06:53:14;;;;;;;2.60;1.35;;;;;;;25.75;43.49;98895.91;5059579;28;20428;-52
2023/07/22 06:55:48;;;;;;;2.88;1.10;;;;;;;26.36;42.03;98879.31;5046618;28;20484;-51
2023/07/22 06:58:14;;;;;;;7.80;1.17;;;;;;;26.88;41.26;98902.75;5048111;28;20133;-49
2023/07/22 07:00:40;;;;;;;2.50;1.20;;;;;;;27.80;39.53;98896.41;5047910;28;20137;-50
2023/07/22 07:03:06;;;;;;;4.97;1.45;;;;;;;27.28;39.61;98880.31;5058016;28;20040;-46
2023/07/22 07:05:32;;;;;;;4.78;1.38;;;;;;;28.31;38.98;98899.28;5052300;28;20044;-47
2023/07/22 07:07:58;;;;;;;2.47;0.98;;;;;;;29.43;36.65;98904.13;5067847;28;20044;-49
2023/07/22 07:10:23;;;;;;;5.30;1.10;;;;;;;28.63;36.52;98890.84;5033112;28;20036;-50
2023/07/22 07:12:50;;;;;;;3.35;1.08;;;;;;;29.67;35.48;98898.38;5082181;28;20059;-51
2023/07/22 07:15:15;;;;;;;4.65;2.90;;;;;;;31.23;33.19;98895.13;5066786;28;20044;-55
2023/07/22 07:17:41;;;;;;;4.72;1.23;;;;;;;30.33;33.61;98889.97;5066255;28;20070;-53
2023/07/22 07:20:07;;;;;;;1.88;1.20;;;;;;;30.59;33.34;98900.88;5065758;28;20558;-50
2023/07/22 07:22:33;;;;;;;1.38;1.05;;;;;;;30.90;32.69;98898.50;5066679;28;20531;-48
2023/07/22 07:24:59;;;;;;;3.58;0.85;;;;;;;30.34;32.93;98895.16;5069723;28;20135;-49
2023/07/22 07:27:25;;;;;;;1.55;0.98;;;;;;;30.18;32.74;98892.78;5069506;28;20056;-50
2023/07/22 07:29:51;;;;;;;6.10;1.17;;;;;;;28.49;34.92;98892.53;5069670;28;20082;-51
2023/07/22 07:32:17;;;;;;;3.40;1.27;;;;;;;28.53;35.80;98887.63;5070370;28;20044;-45
2023/07/22 07:34:43;;;;;;;1.42;0.90;;;;;;;28.21;36.12;98887.00;5068385;28;20051;-45
2023/07/22 07:37:08;;;;;;;4.10;1.17;;;;;;;29.99;33.70;98885.47;5061049;28;20505;-46
2023/07/22 07:39:34;;;;;;;4.47;1.10;;;;;;;32.00;30.75;98873.03;5070706;28;20132;-50
2023/07/22 07:42:00;;;;;;;2.10;0.90;;;;;;;32.44;29.87;98888.47;5069713;28;20028;-47
2023/07/22 07:44:26;;;;;;;4.05;1.35;;;;;;;31.52;30.53;98883.97;5069097;28;20428;-48
2023/07/22 07:46:52;;;;;;;2.03;1.00;;;;;;;29.97;31.99;98900.91;5070642;28;20048;-46
2023/07/22 07:49:18;;;;;;;3.72;1.00;;;;;;;28.45;34.39;98893.09;5049064;28;20051;-49
2023/07/22 07:51:43;;;;;;;2.50;1.25;;;;;;;26.82;36.35;98872.25;5067787;28;20040;-46
2023/07/22 07:54:09;;;;;;;2.20;1.05;;;;;;;28.85;34.57;98887.22;5068247;28;20053;-46
2023/07/22 07:56:35;;;;;;;3.30;0.80;;;;;;;30.16;32.18;98889.47;5068277;28;20080;-50
2023/07/22 07:59:02;;;;;;;3.95;1.08;;;;;;;28.98;32.88;98857.94;5063029;28;20044;-46
2023/07/22 08:01:28;;;;;;;2.45;1.02;;;;;;;29.46;32.67;98856.38;5065849;28;20048;-46
2023/07/22 08:03:54;;;;;;;2.10;0.90;;;;;;;30.32;32.01;98875.75;5068823;28;20515;-47
2023/07/22 08:06:20;;;;;;;2.05;1.20;;;;;;;30.63;31.69;98869.91;5067726;28;20144;-46
2023/07/22 08:08:45;;;;;;;3.05;1.05;;;;;;;31.22;30.34;98891.59;5067513;28;20052;-47
2023/07/22 08:11:13;;;;;;;2.17;1.00;;;;;;;32.64;29.51;98875.75;5069626;28;20044;-51
2023/07/22 08:13:40;;;;;;;2.13;1.23;;;;;;;33.41;28.87;98885.53;5065119;28;20045;-46
2023/07/22 08:16:08;;;;;;;5.63;2.13;;;;;;;33.94;27.02;98880.53;5070652;28;20298;-40
2023/07/22 08:18:35;;;;;;;2.60;1.20;;;;;;;34.50;26.50;98885.75;5070323;28;20519;-49
2023/07/22 08:21:03;;;;;;;3.85;1.10;;;;;;;34.81;26.10;98874.81;5068712;28;20044;-48
2023/07/22 08:23:29;;;;;;;1.27;1.05;;;;;;;35.35;24.80;98891.94;5033610;28;20369;-48
2023/07/22 08:25:55;;;;;;;2.05;1.00;;;;;;;35.26;25.11;98885.22;5058454;28;20052;-49
2023/07/22 08:28:21;;;;;;;2.38;0.90;;;;;;;35.49;24.74;98879.03;5068304;28;20097;-46
2023/07/22 08:30:50;;;;;;;1.65;0.80;;;;;;;35.09;24.37;98844.50;5068421;28;20431;-57
2023/07/22 08:33:16;;;;;;;1.38;0.68;;;;;;;32.32;26.85;98888.31;5068099;28;20523;-54
2023/07/22 08:35:42;;;;;;;3.70;1.00;;;;;;;30.41;29.09;98885.25;5080751;28;20051;-54
2023/07/22 08:38:09;;;;;;;2.17;1.00;;;;;;;31.43;28.13;98869.09;5062686;28;20143;-57
2023/07/22 08:40:39;;;;;;;1.52;0.93;;;;;;;32.82;26.95;98883.97;5068864;28;20055;-57
2023/07/22 08:43:08;;;;;;;1.70;0.70;;;;;;;32.35;26.52;98887.88;5069964;28;20059;-55
2023/07/22 08:45:38;;;;;;;5.18;1.10;;;;;;;32.09;27.05;98887.91;5069042;28;20052;-50
2023/07/22 08:48:09;;;;;;;2.47;0.80;;;;;;;32.88;26.24;98879.59;5067925;28;20040;-46
2023/07/22 08:50:43;;;;;;;1.80;0.90;;;;;;;31.23;28.03;98889.75;5067064;28;20097;-45
2023/07/22 08:53:10;;;;;;;2.22;0.82;;;;;;;29.65;30.20;98886.19;5074426;28;20606;-45
2023/07/22 08:55:39;;;;;;;2.17;1.10;;;;;;;30.04;29.88;98872.28;5078289;28;20439;-49
2023/07/22 08:58:05;;;;;;;4.10;0.80;;;;;;;29.22;30.97;98888.03;5051637;28;20040;-43
2023/07/22 09:00:31;;;;;;;1.50;0.70;;;;;;;28.49;31.88;98889.00;5068988;28;20040;-48
2023/07/22 09:02:57;;;;;;;1.88;1.27;;;;;;;28.66;32.41;98887.81;5018595;28;20420;-45
2023/07/22 09:05:23;;;;;;;2.83;1.00;;;;;;;28.07;32.65;98879.78;5033000;28;20504;-44
2023/07/22 09:07:49;;;;;;;2.35;0.70;;;;;;;27.98;32.90;98893.41;5049473;28;20109;-46
2023/07/22 09:10:15;;;;;;;1.20;0.63;;;;;;;27.81;32.86;98895.41;5050448;28;20413;-49
2023/07/22 09:12:42;;;;;;;5.25;0.88;;;;;;;27.22;33.86;98889.03;5068848;28;20044;-48
2023/07/22 09:15:10;;;;;;;2.88;1.02;;;;;;;27.06;34.20;98863.28;5073245;28;20528;-41
2023/07/22 09:17:37;;;;;;;;;;;;;;;29.44;31.40;98893.22;5081158;28;20504;-46
2023/07/22 09:20:05;;;;;;;4.70;0.88;;;;;;;30.46;29.95;98857.88;5031150;28;19949;-46
2023/07/22 09:22:32;;;;;;;1.98;0.80;;;;;;;31.89;28.07;98869.94;5065594;28;20512;-45
2023/07/22 09:25:18;;;;;;;1.90;0.65;;;;;;;32.37;26.86;98886.63;5067522;28;20102;-52
2023/07/22 09:27:49;;;;;;;1.30;1.00;;;;;;;33.69;26.01;98888.66;5067957;28;20512;-46
2023/07/22 09:30:20;;;;;;;1.23;0.90;;;;;;;33.99;25.78;98896.88;5064089;28;20127;-48
2023/07/22 09:32:46;;;;;;;3.08;0.88;;;;;;;34.03;25.00;98890.81;5051979;28;20062;-48
2023/07/22 09:35:12;;;;;;;1.48;1.00;;;;;;;33.83;24.53;98889.34;5063260;28;20598;-48
2023/07/22 09:37:38;;;;;;;1.45;1.10;;;;;;;34.09;24.58;98888.28;5063593;28;20047;-49
2023/07/22 09:40:21;;;;;;;1.25;1.10;;;;;;;35.24;23.80;98892.72;5067520;28;20052;-54
2023/07/22 09:42:51;;;;;;;3.03;1.02;;;;;;;34.98;23.45;98871.47;5057972;28;20047;-51
2023/07/22 09:45:19;;;;;;;3.17;0.90;;;;;;;34.50;23.50;98888.47;5090484;28;20063;-50
2023/07/22 09:47:49;;;;;;;1.70;0.80;;;;;;;35.42;22.33;98895.38;5063301;28;20109;-48
2023/07/22 09:50:17;;;;;;;3.60;0.98;;;;;;;35.24;23.19;98892.72;5079482;28;20127;-48
2023/07/22 09:52:48;;;;;;;1.15;0.80;;;;;;;35.41;22.31;98888.31;5068698;28;20134;-47
2023/07/22 09:55:16;;;;;;;1.48;0.65;;;;;;;34.18;23.47;98892.34;5069550;28;20074;-50
2023/07/22 09:57:44;;;;;;;;;;;;;;;32.25;25.58;98887.47;5073179;28;20033;-44
2023/07/22 10:00:12;;;;;;;2.67;0.70;;;;;;;30.93;27.09;98894.63;5067046;28;19920;-48
2023/07/22 10:02:41;;;;;;;1.35;0.60;;;;;;;30.25;28.05;98894.47;5067695;28;20032;-44
2023/07/22 10:05:09;;;;;;;1.70;1.02;;;;;;;30.52;27.82;98881.22;5040279;28;20756;-45
2023/07/22 10:07:35;;;;;;;;;;;;;;;32.89;25.54;98882.09;5066097;28;20068;-48
2023/07/22 10:10:01;;;;;;;1.30;0.93;;;;;;;33.32;24.82;98909.22;5067615;28;19956;-49
2023/07/22 10:12:28;;;;;;;1.90;1.10;;;;;;;34.66;23.87;98912.16;5065714;28;20040;-49
2023/07/22 10:14:54;;;;;;;1.42;0.90;;;;;;;34.15;24.46;98907.09;5066609;28;20512;-45
2023/07/22 10:17:21;;;;;;;1.98;0.90;;;;;;;35.17;22.89;98906.31;5030999;28;20543;-46
2023/07/22 10:19:46;;;;;;;1.02;0.57;;;;;;;34.83;23.22;98910.53;5065212;28;20725;-46
2023/07/22 10:22:12;;;;;;;0.82;0.60;;;;;;;32.46;24.97;98906.06;5057918;28;20041;-44
2023/07/22 10:24:39;;;;;;;2.53;0.68;;;;;;;30.98;26.71;98871.50;5060949;28;20052;-44
2023/07/22 10:27:06;;;;;;;1.75;0.80;;;;;;;29.96;28.05;98889.34;5062366;28;20059;-43
2023/07/22 10:29:33;;;;;;;3.15;1.17;;;;;;;29.75;28.76;98906.25;5065824;28;20040;-45
2023/07/22 10:31:59;;;;;;;0.98;0.88;;;;;;;31.99;26.67;98899.09;5066801;28;20048;-46
2023/07/22 10:34:25;;;;;;;2.90;0.80;;;;;;;32.77;25.60;98903.47;5067270;28;20063;-43
2023/07/22 10:36:51;;;;;;;2.13;0.80;;;;;;;31.12;26.86;98902.75;5049671;28;20040;-45
2023/07/22 10:39:28;;;;;;;2.45;0.93;;;;;;;30.06;28.41;98899.72;5054545;28;20048;-47
2023/07/22 10:42:06;;;;;;;2.30;0.95;;;;;;;30.02;28.45;98885.06;5068333;28;20036;-48
2023/07/22 10:44:41;;;;;;;8.15;0.90;;;;;;;30.66;27.22;98883.78;5045943;28;20083;-44
2023/07/22 10:47:07;;;;;;;1.30;0.80;;;;;;;31.12;26.89;98891.16;5064701;28;20118;-57
2023/07/22 10:49:45;;;;;;;4.75;0.90;;;;;;;32.81;25.20;98898.50;5066928;28;20051;-54
2023/07/22 10:52:14;;;;;;;2.70;0.80;;;;;;;31.38;25.75;98904.66;5048919;28;20032;-57
2023/07/22 10:54:40;;;;;;;2.50;0.82;;;;;;;28.93;28.20;98881.78;5047209;28;20516;-55
2023/07/22 10:57:15;;;;;;;2.03;0.70;;;;;;;27.75;29.47;98909.50;5054631;28;20079;-54
2023/07/22 10:59:49;;;;;;;1.58;0.93;;;;;;;29.63;27.70;98891.72;5068876;28;20040;-52
2023/07/22 11:02:44;;;;;;;2.45;1.00;;;;;;;33.05;24.82;98905.00;5033465;28;20618;-58
2023/07/22 11:05:11;;;;;;;1.20;0.70;;;;;;;34.10;23.68;98898.84;5060203;28;20114;-51
2023/07/22 11:07:44;;;;;;;2.30;0.60;;;;;;;31.09;26.05;98883.53;5071410;28;20182;-55
2023/07/22 11:10:16;;;;;;;1.63;0.70;;;;;;;29.34;28.54;98902.59;5070575;28;20167;-51
2023/07/22 11:12:44;;;;;;;0.82;0.50;;;;;;;28.29;29.36;98895.94;5070365;28;20048;-50
2023/07/22 11:15:10;;;;;;;2.90;0.90;;;;;;;27.62;30.76;98896.75;5069420;28;20040;-60
2023/07/22 11:17:37;;;;;;;1.45;0.77;;;;;;;27.61;30.84;98881.75;5066442;28;20045;-58
2023/07/22 11:20:03;;;;;;;0.98;0.60;;;;;;;27.50;30.85;98895.53;5072735;28;20074;-57
2023/07/22 11:22:30;;;;;;;2.95;1.10;;;;;;;28.31;30.10;98907.31;5072522;28;20056;-55
2023/07/22 11:25:00;;;;;;;1.15;0.90;;;;;;;31.46;26.84;98887.50;5069597;28;20076;-51
2023/07/22 11:27:26;;;;;;;5.38;1.25;;;;;;;33.81;24.30;98916.53;5049339;28;20188;-51
2023/07/22 11:29:52;;;;;;;1.40;1.10;;;;;;;34.34;23.14;98898.00;5053480;28;20063;-56
2023/07/22 11:32:23;;;;;;;3.05;0.80;;;;;;;35.70;22.13;98913.66;5070066;28;20101;-55